createdAt,value
2023-03-15T00:00:10.171Z,70.06
2023-03-15T00:02:38.353Z,68.99
2023-03-15T00:05:07.858Z,69.21
2023-03-15T00:07:35.973Z,70.42
2023-03-15T00:10:04.337Z,71.07
2023-03-15T00:12:34.436Z,71.04
2023-03-15T00:15:02.632Z,71.25
2023-03-15T00:17:34.811Z,71.40
2023-03-15T00:20:04.204Z,70.91
2023-03-15T00:22:32.385Z,70.99
2023-03-15T00:25:00.539Z,71.04
2023-03-15T00:27:28.760Z,70.57
2023-03-15T00:29:58.236Z,70.73
2023-03-15T00:32:26.527Z,69.69
2023-03-15T00:34:54.656Z,69.85
2023-03-15T00:37:25.697Z,69.71
2023-03-15T00:39:55.594Z,69.86
2023-03-15T00:42:27.675Z,69.65
2023-03-15T00:44:57.218Z,68.78
2023-03-15T00:47:25.529Z,69.57
2023-03-15T00:49:53.684Z,69.85
2023-03-15T00:52:22.089Z,70.02
2023-03-15T00:54:53.334Z,69.93
2023-03-15T00:57:22.231Z,70.09
2023-03-15T00:59:53.097Z,70.22
2023-03-15T01:02:22.715Z,70.22
2023-03-15T01:04:51.203Z,70.03
2023-03-15T01:07:19.328Z,70.57
2023-03-15T01:09:48.542Z,70.17
2023-03-15T01:12:16.817Z,70.74
2023-03-15T01:14:44.930Z,70.46
2023-03-15T01:17:13.241Z,70.20
2023-03-15T01:19:42.825Z,69.83
2023-03-15T01:22:11.012Z,70.16
2023-03-15T01:24:39.122Z,69.47
2023-03-15T01:27:07.372Z,69.47
2023-03-15T01:29:35.610Z,69.48
2023-03-15T01:32:03.797Z,68.93
2023-03-15T01:34:32.112Z,69.22
2023-03-15T01:37:02.847Z,69.52
2023-03-15T01:39:31.314Z,69.36
2023-03-15T01:41:59.525Z,70.14
2023-03-15T01:44:52.806Z,69.06
2023-03-15T01:47:21.500Z,69.43
2023-03-15T01:50:02.724Z,69.92
2023-03-15T01:52:38.094Z,69.69
2023-03-15T01:55:11.181Z,70.26
2023-03-15T01:57:45.647Z,69.68
2023-03-15T02:00:17.481Z,70.14
2023-03-15T02:02:50.860Z,70.62
2023-03-15T02:05:25.107Z,70.68
2023-03-15T02:07:56.164Z,70.79
2023-03-15T02:10:31.409Z,70.34
2023-03-15T02:13:00.703Z,69.87
2023-03-15T02:15:29.156Z,69.15
2023-03-15T02:17:57.630Z,70.29
2023-03-15T02:20:38.360Z,70.22
2023-03-15T02:23:12.554Z,69.98
2023-03-15T02:25:53.382Z,70.25
2023-03-15T02:28:23.888Z,71.13
2023-03-15T02:30:52.516Z,70.99
2023-03-15T02:33:26.918Z,70.92
2023-03-15T02:35:56.651Z,71.57
2023-03-15T02:38:24.840Z,71.69
2023-03-15T02:40:54.558Z,71.13
2023-03-15T02:43:30.571Z,71.23
2023-03-15T02:46:00.276Z,71.61
2023-03-15T02:48:29.704Z,72.43
2023-03-15T02:50:57.818Z,72.08
2023-03-15T02:53:25.934Z,72.11
2023-03-15T02:55:54.057Z,72.43
2023-03-15T02:58:23.805Z,72.42
2023-03-15T03:00:53.863Z,72.84
2023-03-15T03:03:22.198Z,72.29
2023-03-15T03:05:50.345Z,73.01
2023-03-15T03:08:18.489Z,73.22
2023-03-15T03:10:46.590Z,73.24
2023-03-15T03:13:14.834Z,73.18
2023-03-15T03:15:45.452Z,72.64
2023-03-15T03:18:13.612Z,72.37
2023-03-15T03:20:41.726Z,71.48
2023-03-15T03:23:09.823Z,71.97
2023-03-15T03:25:37.905Z,71.13
2023-03-15T03:28:06.090Z,71.85
2023-03-15T03:30:36.602Z,72.59
2023-03-15T03:33:06.161Z,72.52
2023-03-15T03:35:34.320Z,72.23
2023-03-15T03:38:02.443Z,71.28
2023-03-15T03:40:30.580Z,71.43
2023-03-15T03:42:58.677Z,72.23
2023-03-15T03:45:26.983Z,72.17
2023-03-15T03:47:55.196Z,72.36
2023-03-15T03:50:25.065Z,73.20
2023-03-15T03:52:53.669Z,73.43
2023-03-15T03:55:25.506Z,73.27
2023-03-15T03:57:53.909Z,72.71
2023-03-15T04:00:22.559Z,72.67
2023-03-15T04:02:54.192Z,72.46
2023-03-15T04:05:24.142Z,71.78
2023-03-15T04:07:52.269Z,72.12
2023-03-15T04:10:26.931Z,72.78
2023-03-15T04:12:56.867Z,72.07
2023-03-15T04:15:25.665Z,72.02
2023-03-15T04:17:55.887Z,72.56
2023-03-15T04:20:27.409Z,72.76
2023-03-15T04:22:55.631Z,72.57
2023-03-15T04:25:26.585Z,72.11
2023-03-15T04:27:59.538Z,71.78
2023-03-15T04:30:28.190Z,72.50
2023-03-15T04:32:59.094Z,73.08
2023-03-15T04:35:30.729Z,74.03
2023-03-15T04:37:59.357Z,74.17
2023-03-15T04:40:28.393Z,74.13
2023-03-15T04:42:57.380Z,74.04
2023-03-15T04:45:26.864Z,73.53
2023-03-15T04:47:56.451Z,73.19
2023-03-15T04:50:25.839Z,73.17
2023-03-15T04:52:55.496Z,73.63
2023-03-15T04:55:24.139Z,73.75
2023-03-15T04:57:52.339Z,73.81
2023-03-15T05:00:21.694Z,73.55
2023-03-15T05:02:54.762Z,73.60
2023-03-15T05:05:24.321Z,72.92
2023-03-15T05:07:54.386Z,73.34
2023-03-15T05:10:23.404Z,72.99
2023-03-15T05:12:51.545Z,72.50
2023-03-15T05:15:19.813Z,72.00
2023-03-15T05:17:48.863Z,71.76
2023-03-15T05:20:17.727Z,70.48
2023-03-15T05:22:45.854Z,69.88
2023-03-15T05:25:15.771Z,69.85
2023-03-15T05:27:46.385Z,70.46
2023-03-15T05:30:16.404Z,69.86
2023-03-15T05:32:45.421Z,69.38
2023-03-15T05:35:14.639Z,69.73
2023-03-15T05:37:42.881Z,68.71
2023-03-15T05:40:12.752Z,69.34
2023-03-15T05:42:42.384Z,69.07
2023-03-15T05:45:12.162Z,68.97
2023-03-15T05:47:40.425Z,68.50
2023-03-15T05:50:09.624Z,68.29
2023-03-15T05:52:37.767Z,68.05
2023-03-15T05:55:06.744Z,67.78
2023-03-15T05:57:35.206Z,66.51
2023-03-15T06:00:08.951Z,66.70
2023-03-15T06:02:37.151Z,66.00
2023-03-15T06:05:06.018Z,65.61
2023-03-15T06:07:34.372Z,66.43
2023-03-15T06:10:03.036Z,64.79
2023-03-15T06:12:31.280Z,65.52
2023-03-15T06:14:59.363Z,65.39
2023-03-15T06:17:28.838Z,65.87
2023-03-15T06:19:56.953Z,65.98
2023-03-15T06:22:25.093Z,65.53
2023-03-15T06:24:53.192Z,66.33
2023-03-15T06:27:22.196Z,67.03
2023-03-15T06:29:51.133Z,67.03
2023-03-15T06:32:19.514Z,67.62
2023-03-15T06:34:48.966Z,68.32
2023-03-15T06:37:28.885Z,69.05
2023-03-15T06:40:04.036Z,69.17
2023-03-15T06:42:32.182Z,69.65
2023-03-15T06:45:01.112Z,70.28
2023-03-15T06:47:29.427Z,69.95
2023-03-15T06:49:59.023Z,70.33
2023-03-15T06:52:27.646Z,70.26
2023-03-15T06:54:55.891Z,69.57
2023-03-15T06:57:24.488Z,69.21
2023-03-15T06:59:54.036Z,68.52
2023-03-15T07:02:22.602Z,68.66
2023-03-15T07:04:50.845Z,68.87
2023-03-15T07:07:20.415Z,70.24
2023-03-15T07:09:48.497Z,70.63
2023-03-15T07:12:16.648Z,71.49
2023-03-15T07:14:46.492Z,72.91
2023-03-15T07:17:14.910Z,73.74
2023-03-15T07:19:55.474Z,74.25
2023-03-15T07:22:26.636Z,74.94
2023-03-15T07:24:54.785Z,75.49
2023-03-15T07:27:22.965Z,76.56
2023-03-15T07:29:52.348Z,76.77
2023-03-15T07:32:20.798Z,76.77
2023-03-15T07:34:48.920Z,77.81
2023-03-15T07:37:17.340Z,78.45
2023-03-15T07:39:46.863Z,77.95
2023-03-15T07:42:15.496Z,78.20
2023-03-15T07:44:43.594Z,78.90
2023-03-15T07:47:12.228Z,78.99
2023-03-15T07:49:40.591Z,78.58
2023-03-15T07:52:09.916Z,79.10
2023-03-15T07:54:37.997Z,79.33
2023-03-15T07:57:08.306Z,79.92
2023-03-15T07:59:36.412Z,79.87
2023-03-15T08:02:04.652Z,79.63
2023-03-15T08:04:35.590Z,79.42
2023-03-15T08:07:03.876Z,78.46
2023-03-15T08:09:34.614Z,78.62
2023-03-15T08:12:03.462Z,78.71
2023-03-15T08:14:33.455Z,76.92
2023-03-15T08:17:01.583Z,77.58
2023-03-15T08:19:29.739Z,77.90
2023-03-15T08:21:57.882Z,77.14
2023-03-15T08:24:27.040Z,74.74
2023-03-15T08:26:55.141Z,74.16
2023-03-15T08:29:23.229Z,72.11
2023-03-15T08:31:52.766Z,72.55
2023-03-15T08:34:21.568Z,72.99
2023-03-15T08:36:50.191Z,71.69
2023-03-15T08:39:18.344Z,71.17
2023-03-15T08:41:47.451Z,71.11
2023-03-15T08:44:15.570Z,71.99
2023-03-15T08:46:43.742Z,72.22
2023-03-15T08:49:13.289Z,72.62
2023-03-15T08:51:41.442Z,72.69
2023-03-15T08:54:09.595Z,72.59
2023-03-15T08:56:37.756Z,73.10
2023-03-15T08:59:05.891Z,73.78
2023-03-15T09:01:34.775Z,74.53
2023-03-15T09:04:04.260Z,73.29
2023-03-15T09:06:33.835Z,72.23
2023-03-15T09:09:01.949Z,70.72
2023-03-15T09:11:30.129Z,69.81
2023-03-15T09:13:58.231Z,68.47
2023-03-15T09:16:26.782Z,67.80
2023-03-15T09:18:54.938Z,65.73
2023-03-15T09:21:24.637Z,65.54
2023-03-15T09:23:54.134Z,65.66
2023-03-15T09:26:22.291Z,63.46
2023-03-15T09:28:50.574Z,62.42
2023-03-15T09:31:18.775Z,62.43
2023-03-15T09:33:47.375Z,62.53
2023-03-15T09:36:15.562Z,60.86
2023-03-15T09:38:44.944Z,60.82
2023-03-15T09:41:22.666Z,59.69
2023-03-15T09:44:13.028Z,59.08
2023-03-15T09:46:54.178Z,58.85
2023-03-15T09:49:38.409Z,56.62
2023-03-15T09:52:30.375Z,59.00
2023-03-15T09:55:04.675Z,58.68
2023-03-15T09:57:44.717Z,57.62
2023-03-15T10:00:20.624Z,54.83
2023-03-15T10:02:59.428Z,54.50
2023-03-15T10:05:39.019Z,54.19
2023-03-15T10:08:13.226Z,55.07
2023-03-15T10:10:52.703Z,52.35
2023-03-15T10:13:52.171Z,53.76
2023-03-15T10:16:38.273Z,54.50
2023-03-15T10:19:30.354Z,54.92
2023-03-15T10:22:04.878Z,52.54
2023-03-15T10:24:41.851Z,53.70
2023-03-15T10:27:20.616Z,53.00
2023-03-15T10:29:55.083Z,53.18
2023-03-15T10:32:28.332Z,50.83
2023-03-15T10:34:59.441Z,52.87
2023-03-15T10:37:27.869Z,52.65
2023-03-15T10:39:59.640Z,52.64
2023-03-15T10:42:33.104Z,52.04
2023-03-15T10:45:20.932Z,52.09
2023-03-15T10:47:59.686Z,51.57
2023-03-15T10:50:31.202Z,53.18
2023-03-15T10:53:01.167Z,54.74
2023-03-15T10:55:34.659Z,53.60
2023-03-15T10:58:25.790Z,52.22
2023-03-15T11:01:03.371Z,51.89
2023-03-15T11:03:32.196Z,50.67
2023-03-15T11:06:01.471Z,50.21
2023-03-15T11:08:40.153Z,50.44
2023-03-15T11:11:09.999Z,53.53
2023-03-15T11:13:40.761Z,56.20
2023-03-15T11:16:23.111Z,56.32
2023-03-15T11:18:58.442Z,55.28
2023-03-15T11:21:33.537Z,53.94
2023-03-15T11:24:05.585Z,53.86
2023-03-15T11:26:37.980Z,52.53
2023-03-15T11:29:15.752Z,52.11
2023-03-15T11:31:46.377Z,51.45
2023-03-15T11:34:26.406Z,52.17
2023-03-15T11:37:08.671Z,53.13
2023-03-15T11:39:46.384Z,52.47
2023-03-15T11:42:28.809Z,52.61
2023-03-15T11:45:03.901Z,51.67
2023-03-15T11:47:43.982Z,48.91
2023-03-15T11:50:16.626Z,49.31
2023-03-15T11:52:50.568Z,50.52
2023-03-15T11:55:24.023Z,49.20
2023-03-15T11:57:53.368Z,49.25
2023-03-15T12:00:51.686Z,47.24
2023-03-15T12:03:43.176Z,47.00
2023-03-15T12:06:39.803Z,46.91
2023-03-15T12:09:51.991Z,46.38
2023-03-15T12:12:41.458Z,46.10
2023-03-15T12:15:47.224Z,46.60
2023-03-15T12:18:33.527Z,46.97
2023-03-15T12:21:17.879Z,45.71
2023-03-15T12:23:58.061Z,44.74
2023-03-15T12:26:33.367Z,43.13
2023-03-15T12:29:14.262Z,42.46
2023-03-15T12:31:54.172Z,42.39
2023-03-15T12:34:46.934Z,41.07
2023-03-15T12:37:22.116Z,41.12
2023-03-15T12:39:52.758Z,42.51
2023-03-15T12:43:13.166Z,43.96
2023-03-15T12:45:47.381Z,43.76
2023-03-15T12:48:27.188Z,43.81
2023-03-15T12:51:10.181Z,46.09
2023-03-15T12:53:50.461Z,44.68
2023-03-15T12:56:37.005Z,45.67
2023-03-15T12:59:19.789Z,44.81
2023-03-15T13:01:48.389Z,44.93
2023-03-15T13:04:16.649Z,44.55
2023-03-15T13:07:05.316Z,44.52
2023-03-15T13:10:17.883Z,44.22
2023-03-15T13:12:56.790Z,46.37
2023-03-15T13:15:32.982Z,47.05
2023-03-15T13:18:17.807Z,46.12
2023-03-15T13:21:00.697Z,47.46
2023-03-15T13:23:31.457Z,46.31
2023-03-15T13:26:18.491Z,45.59
2023-03-15T13:28:52.137Z,45.66
2023-03-15T13:31:25.065Z,46.44
2023-03-15T13:33:57.410Z,46.14
2023-03-15T13:36:30.007Z,46.04
2023-03-15T13:38:58.632Z,45.42
2023-03-15T13:41:30.870Z,45.98
2023-03-15T13:44:04.999Z,45.39
2023-03-15T13:46:33.536Z,42.67
2023-03-15T13:49:02.288Z,43.80
2023-03-15T13:51:34.367Z,43.84
2023-03-15T13:54:07.998Z,44.70
2023-03-15T13:56:49.834Z,44.73
2023-03-15T13:59:20.124Z,44.40
2023-03-15T14:01:53.971Z,43.59
2023-03-15T14:04:23.585Z,42.89
2023-03-15T14:07:03.441Z,43.07
2023-03-15T14:09:31.604Z,42.08
2023-03-15T14:12:17.066Z,41.81
2023-03-15T14:14:53.204Z,39.32
2023-03-15T14:17:28.304Z,39.35
2023-03-15T14:20:06.804Z,39.24
2023-03-15T14:22:35.891Z,38.80
2023-03-15T14:25:19.930Z,40.28
2023-03-15T14:27:49.732Z,39.61
2023-03-15T14:30:25.489Z,39.17
2023-03-15T14:32:57.434Z,40.19
2023-03-15T14:35:31.047Z,43.87
2023-03-15T14:38:08.478Z,46.82
2023-03-15T14:40:39.109Z,48.29
2023-03-15T14:43:12.855Z,49.42
2023-03-15T14:45:44.855Z,50.37
2023-03-15T14:48:20.345Z,50.57
2023-03-15T14:50:49.711Z,51.17
2023-03-15T14:53:23.866Z,51.47
2023-03-15T14:55:51.974Z,51.72
2023-03-15T14:58:23.695Z,52.35
2023-03-15T15:00:55.245Z,51.45
2023-03-15T15:03:34.291Z,51.55
2023-03-15T15:06:03.720Z,51.82
2023-03-15T15:08:33.660Z,52.74
2023-03-15T15:11:02.695Z,52.30
2023-03-15T15:13:32.695Z,50.19
2023-03-15T15:16:01.840Z,49.62
2023-03-15T15:18:32.702Z,52.85
2023-03-15T15:21:04.113Z,54.20
2023-03-15T15:23:47.457Z,54.25
2023-03-15T15:26:26.928Z,54.56
2023-03-15T15:28:57.411Z,53.24
2023-03-15T15:31:28.918Z,53.76
2023-03-15T15:33:57.892Z,55.07
2023-03-15T15:36:31.852Z,54.01
2023-03-15T15:39:06.433Z,53.74
2023-03-15T15:41:35.114Z,54.17
2023-03-15T15:44:04.672Z,54.46
2023-03-15T15:46:32.977Z,55.36
2023-03-15T15:49:01.030Z,54.67
2023-03-15T15:51:31.624Z,52.61
2023-03-15T15:54:02.479Z,52.44
2023-03-15T15:56:35.487Z,52.32
2023-03-15T15:59:06.709Z,51.71
2023-03-15T16:01:35.531Z,50.74
2023-03-15T16:04:06.090Z,49.52
2023-03-15T16:06:34.921Z,48.99
2023-03-15T16:09:05.396Z,48.08
2023-03-15T16:11:34.175Z,48.87
2023-03-15T16:14:02.790Z,48.79
2023-03-15T16:16:33.256Z,49.21
2023-03-15T16:19:01.318Z,50.57
2023-03-15T16:21:34.422Z,50.62
2023-03-15T16:24:09.644Z,51.19
2023-03-15T16:26:40.319Z,51.57
2023-03-15T16:29:19.140Z,51.91
2023-03-15T16:31:49.150Z,52.48
2023-03-15T16:34:23.509Z,53.01
2023-03-15T16:36:54.854Z,53.98
2023-03-15T16:39:24.055Z,54.55
2023-03-15T16:41:52.657Z,53.71
2023-03-15T16:44:22.294Z,54.03
2023-03-15T16:46:52.198Z,55.28
2023-03-15T16:49:20.930Z,55.88
2023-03-15T16:51:54.285Z,56.50
2023-03-15T16:54:39.978Z,56.91
2023-03-15T16:57:17.505Z,54.88
2023-03-15T16:59:45.647Z,53.78
2023-03-15T17:02:21.449Z,54.47
2023-03-15T17:04:50.164Z,55.93
2023-03-15T17:07:35.243Z,57.69
2023-03-15T17:10:13.369Z,59.20
2023-03-15T17:12:47.319Z,60.40
2023-03-15T17:15:16.104Z,61.16
2023-03-15T17:17:50.042Z,61.46
2023-03-15T17:20:21.735Z,62.15
2023-03-15T17:22:55.726Z,61.81
2023-03-15T17:25:29.504Z,62.50
2023-03-15T17:27:57.699Z,63.70
2023-03-15T17:30:32.733Z,63.99
2023-03-15T17:33:02.954Z,64.80
2023-03-15T17:35:38.438Z,65.39
2023-03-15T17:38:17.020Z,65.47
2023-03-15T17:40:45.409Z,66.48
2023-03-15T17:43:17.230Z,67.07
2023-03-15T17:45:45.506Z,66.74
2023-03-15T17:48:15.290Z,67.49
2023-03-15T17:50:45.391Z,68.01
2023-03-15T17:53:18.458Z,68.03
2023-03-15T17:55:47.899Z,68.69
2023-03-15T17:58:21.142Z,69.42
2023-03-15T18:00:50.414Z,68.71
2023-03-15T18:03:19.978Z,68.28
2023-03-15T18:05:48.485Z,68.68
2023-03-15T18:08:19.531Z,68.39
2023-03-15T18:10:49.842Z,68.70
2023-03-15T18:13:22.115Z,69.31
2023-03-15T18:15:51.112Z,69.99
2023-03-15T18:18:21.281Z,70.34
2023-03-15T18:20:50.274Z,70.73
2023-03-15T18:23:19.491Z,70.97
2023-03-15T18:25:48.225Z,70.94
2023-03-15T18:28:16.386Z,71.71
2023-03-15T18:30:45.336Z,72.45
2023-03-15T18:33:15.949Z,72.83
2023-03-15T18:35:45.797Z,73.41
2023-03-15T18:38:16.104Z,73.48
2023-03-15T18:40:44.369Z,73.34
2023-03-15T18:43:14.838Z,73.60
2023-03-15T18:45:43.189Z,73.99
2023-03-15T18:48:11.322Z,73.96
2023-03-15T18:50:39.606Z,73.94
2023-03-15T18:53:09.378Z,73.83
2023-03-15T18:55:37.828Z,74.30
2023-03-15T18:58:08.925Z,74.87
2023-03-15T19:00:37.752Z,74.40
2023-03-15T19:03:07.529Z,73.58
2023-03-15T19:05:38.602Z,73.38
2023-03-15T19:08:08.372Z,73.73
2023-03-15T19:10:37.512Z,73.63
2023-03-15T19:13:05.734Z,74.17
2023-03-15T19:15:33.982Z,74.50
2023-03-15T19:18:02.172Z,75.24
2023-03-15T19:20:30.617Z,75.64
2023-03-15T19:22:58.896Z,76.33
2023-03-15T19:25:28.419Z,76.85
2023-03-15T19:27:57.335Z,75.61
2023-03-15T19:30:26.393Z,75.52
2023-03-15T19:32:54.983Z,75.47
2023-03-15T19:35:23.233Z,75.52
2023-03-15T19:37:51.897Z,76.03
2023-03-15T19:40:21.459Z,76.34
2023-03-15T19:42:51.695Z,75.45
2023-03-15T19:45:20.217Z,74.96
2023-03-15T19:47:48.511Z,75.54
2023-03-15T19:50:17.879Z,75.47
2023-03-15T19:52:49.935Z,75.40
2023-03-15T19:55:22.832Z,76.03
2023-03-15T19:57:52.391Z,76.70
2023-03-15T20:00:23.296Z,77.11
2023-03-15T20:02:51.764Z,77.04
2023-03-15T20:05:21.974Z,76.74
2023-03-15T20:07:51.696Z,76.92
2023-03-15T20:10:21.261Z,76.82
2023-03-15T20:12:51.003Z,76.23
2023-03-15T20:15:21.111Z,76.03
2023-03-15T20:17:49.251Z,76.05
2023-03-15T20:20:18.555Z,76.60
2023-03-15T20:22:47.307Z,77.02
2023-03-15T20:25:17.002Z,77.21
2023-03-15T20:27:45.296Z,76.99
2023-03-15T20:30:17.301Z,77.02
2023-03-15T20:32:45.744Z,76.99
2023-03-15T20:35:14.235Z,76.95
2023-03-15T20:37:42.953Z,75.88
2023-03-15T20:40:14.577Z,75.89
2023-03-15T20:42:43.676Z,75.81
2023-03-15T20:45:15.025Z,75.53
2023-03-15T20:47:43.859Z,75.96
2023-03-15T20:50:14.133Z,75.80
2023-03-15T20:52:42.627Z,75.11
2023-03-15T20:55:12.074Z,75.19
2023-03-15T20:57:42.026Z,75.59
2023-03-15T21:00:17.905Z,76.05
2023-03-15T21:02:48.615Z,75.93
2023-03-15T21:05:17.994Z,75.74
2023-03-15T21:07:47.201Z,75.98
2023-03-15T21:10:15.838Z,76.19
2023-03-15T21:12:44.940Z,75.95
2023-03-15T21:15:18.879Z,75.86
2023-03-15T21:17:49.742Z,75.89
2023-03-15T21:20:18.826Z,75.52
2023-03-15T21:22:46.969Z,75.66
2023-03-15T21:25:15.210Z,75.76
2023-03-15T21:27:43.595Z,75.37
2023-03-15T21:30:14.360Z,75.63
2023-03-15T21:32:43.068Z,76.31
2023-03-15T21:35:13.541Z,76.83
2023-03-15T21:37:41.712Z,76.95
2023-03-15T21:40:13.217Z,76.61
2023-03-15T21:42:42.563Z,76.03
2023-03-15T21:45:12.232Z,76.28
2023-03-15T21:47:40.514Z,76.46
2023-03-15T21:50:12.599Z,76.65
2023-03-15T21:52:41.259Z,76.94
2023-03-15T21:55:15.392Z,77.00
2023-03-15T21:57:44.720Z,77.24
2023-03-15T22:00:16.042Z,77.58
2023-03-15T22:02:44.947Z,76.66
2023-03-15T22:05:15.035Z,76.32
2023-03-15T22:07:43.916Z,75.96
2023-03-15T22:10:14.268Z,75.65
2023-03-15T22:12:43.349Z,75.15
2023-03-15T22:15:13.300Z,75.16
2023-03-15T22:17:41.669Z,75.93
2023-03-15T22:20:16.383Z,75.91
2023-03-15T22:22:46.934Z,76.74
2023-03-15T22:25:15.754Z,77.09
2023-03-15T22:27:44.146Z,76.32
2023-03-15T22:30:15.106Z,75.76
2023-03-15T22:32:44.331Z,75.90
2023-03-15T22:35:14.319Z,75.91
2023-03-15T22:37:42.488Z,76.39
2023-03-15T22:40:15.141Z,77.42
2023-03-15T22:42:44.181Z,78.20
2023-03-15T22:45:12.657Z,77.99
2023-03-15T22:47:40.795Z,77.51
2023-03-15T22:50:11.502Z,77.02
2023-03-15T22:52:39.723Z,77.19
2023-03-15T22:55:12.581Z,77.41
2023-03-15T22:57:41.086Z,77.55
2023-03-15T23:00:16.220Z,77.59
2023-03-15T23:02:45.661Z,77.64
2023-03-15T23:05:15.003Z,76.86
2023-03-15T23:07:43.180Z,76.09
2023-03-15T23:10:13.883Z,76.06
2023-03-15T23:12:42.095Z,76.12
2023-03-15T23:15:14.163Z,76.19
2023-03-15T23:17:45.894Z,75.88
2023-03-15T23:20:17.271Z,75.96
2023-03-15T23:22:46.658Z,76.15
2023-03-15T23:25:20.275Z,76.12
2023-03-15T23:27:49.700Z,75.92
2023-03-15T23:30:18.467Z,76.29
2023-03-15T23:32:46.715Z,76.84
2023-03-15T23:35:15.093Z,77.37
2023-03-15T23:37:43.894Z,77.51
2023-03-15T23:40:15.190Z,77.39
2023-03-15T23:42:45.388Z,77.42
2023-03-15T23:45:16.208Z,77.37
2023-03-15T23:47:44.648Z,77.11
2023-03-15T23:50:13.820Z,76.35
2023-03-15T23:52:42.256Z,76.12
2023-03-15T23:55:11.466Z,76.51
2023-03-15T23:57:39.622Z,75.86
